Time;durP1;ratioP1;P1;durP2;ratioP2;P2;SDS_P1;SDS_P2;PMS_P1;PMS_P2;Temp;Humidity;BMP_temperature;BMP_pressure;BME280_temperature;BME280_humidity;BME280_pressure;Samples;Min_cycle;Max_cycle;Signal;HPM_P1;HPM_P2
2023/02/22 00:01:18;;;;;;;;;;;;;;;-0.05;100.00;96540.38;4999748;28;20386;-71
2023/02/22 00:03:47;;;;;;;;;;;;;;;-0.09;100.00;96536.66;5005234;28;19925;-72
2023/02/22 00:06:14;;;;;;;;;;;;;;;-0.07;100.00;96542.56;5000084;28;19926;-70
2023/02/22 00:08:39;;;;;;;;;;;;;;;0.08;100.00;96534.16;5004938;28;19917;-70
2023/02/22 00:11:09;;;;;;;;;;;;;;;0.13;100.00;96542.13;4998573;28;20416;-69
2023/02/22 00:13:37;;;;;;;;;;;;;;;0.32;100.00;96539.25;5004681;28;20285;-71
2023/02/22 00:16:03;;;;;;;;;;;;;;;0.50;100.00;96542.09;5002333;28;19988;-70
2023/02/22 00:18:28;;;;;;;;;;;;;;;0.38;100.00;96546.13;5002793;28;19921;-69
2023/02/22 00:20:58;;;;;;;;;;;;;;;0.23;100.00;96538.38;5004923;28;19964;-73
2023/02/22 00:23:25;;;;;;;;;;;;;;;-0.07;100.00;96540.66;5000167;28;19918;-72
2023/02/22 00:25:50;;;;;;;;;;;;;;;-0.06;100.00;96538.75;5004038;28;20353;-72
2023/02/22 00:28:16;;;;;;;;;;;;;;;0.17;100.00;96548.47;5000050;28;19917;-71
2023/02/22 00:30:42;;;;;;;;;;;;;;;0.28;100.00;96545.56;5004470;28;20008;-73
2023/02/22 00:33:08;;;;;;;;;;;;;;;0.36;100.00;96534.88;4997757;28;19967;-71
2023/02/22 00:35:33;;;;;;;;;;;;;;;0.56;100.00;96536.28;5004757;28;19921;-69
2023/02/22 00:38:00;;;;;;;;;;;;;;;0.40;100.00;96539.63;5004715;28;20428;-69
2023/02/22 00:40:27;;;;;;;;;;;;;;;0.01;100.00;96543.75;4999925;28;19972;-69
2023/02/22 00:42:52;;;;;;;;;;;;;;;-0.11;100.00;96544.25;5003391;28;19924;-73
2023/02/22 00:45:19;;;;;;;;;;;;;;;-0.15;100.00;96535.97;4999143;28;19922;-70
2023/02/22 00:47:44;;;;;;;;;;;;;;;-0.16;100.00;96545.16;5003600;28;19921;-71
2023/02/22 00:50:09;;;;;;;;;;;;;;;0.01;100.00;96554.50;4999694;28;19971;-70
2023/02/22 00:52:35;;;;;;;;;;;;;;;-0.05;100.00;96546.53;5004894;28;19917;-70
2023/02/22 00:55:01;;;;;;;;;;;;;;;-0.20;100.00;96547.66;5004182;28;19918;-71
2023/02/22 00:57:26;;;;;;;;;;;;;;;-0.22;100.00;96543.66;4997497;28;19925;-71
2023/02/22 00:59:51;;;;;;;;;;;;;;;-0.27;100.00;96554.53;5004408;28;19923;-74
2023/02/22 01:02:17;;;;;;;;;;;;;;;-0.32;100.00;96551.94;4999138;28;20393;-71
2023/02/22 01:04:43;;;;;;;;;;;;;;;-0.48;100.00;96549.56;5003823;28;19936;-73
2023/02/22 01:07:08;;;;;;;;;;;;;;;-0.83;100.00;96537.56;5000208;28;20396;-73
2023/02/22 01:09:34;;;;;;;;;;;;;;;-1.13;100.00;96533.50;5004088;28;19917;-73
2023/02/22 01:11:59;;;;;;;;;;;;;;;-1.14;100.00;96537.31;5003687;28;19956;-71
2023/02/22 01:14:28;;;;;;;;;;;;;;;-1.13;100.00;96534.31;5006852;28;20339;-72
2023/02/22 01:16:54;;;;;;;;;;;;;;;-1.00;100.00;96538.94;5025369;28;19925;-71
2023/02/22 01:19:20;;;;;;;;;;;;;;;-0.93;100.00;96530.47;4998627;28;19917;-71
2023/02/22 01:21:46;;;;;;;;;;;;;;;-0.89;100.00;96544.13;5003655;28;19922;-70
2023/02/22 01:24:15;;;;;;;;;;;;;;;-0.94;100.00;96526.19;4996975;28;19917;-72
2023/02/22 01:26:47;;;;;;;;;;;;;;;-0.92;100.00;96529.38;5003579;28;19971;-71
2023/02/22 01:29:14;;;;;;;;;;;;;;;-0.84;100.00;96530.59;4999153;28;19944;-70
2023/02/22 01:31:40;;;;;;;;;;;;;;;-0.88;100.00;96524.19;5003465;28;20428;-70
2023/02/22 01:34:05;;;;;;;;;;;;;;;-0.92;100.00;96531.28;4999772;28;19918;-69
2023/02/22 01:36:30;;;;;;;;;;;;;;;-0.85;100.00;96524.41;5003946;28;19921;-72
2023/02/22 01:38:57;;;;;;;;;;;;;;;-0.68;100.00;96523.84;5004446;28;20004;-70
2023/02/22 01:41:22;;;;;;;;;;;;;;;-0.51;100.00;96519.75;4998738;28;20341;-70
2023/02/22 01:43:47;;;;;;;;;;;;;;;-0.33;100.00;96520.75;5006441;28;19917;-71
2023/02/22 01:46:20;;;;;;;;;;;;;;;-0.31;100.00;96516.63;5016117;28;19933;-71
2023/02/22 01:48:58;;;;;;;;;;;;;;;-0.16;100.00;96518.25;5018230;28;19957;-71
2023/02/22 01:51:31;;;;;;;;;;;;;;;-0.19;100.00;96516.16;4998663;28;20279;-69
2023/02/22 01:54:00;;;;;;;;;;;;;;;-0.11;100.00;96520.00;5002811;28;19917;-70
2023/02/22 01:56:27;;;;;;;;;;;;;;;-0.31;100.00;96507.78;4996996;28;19917;-71
2023/02/22 01:59:01;;;;;;;;;;;;;;;-0.60;100.00;96503.50;5001792;28;19921;-71
2023/02/22 02:01:28;;;;;;;;;;;;;;;-0.79;100.00;96506.31;4998893;28;19918;-71
2023/02/22 02:03:58;;;;;;;;;;;;;;;-0.72;100.00;96516.66;5002563;28;20020;-70
2023/02/22 02:06:25;;;;;;;;;;;;;;;-0.61;100.00;96508.09;4998153;28;19925;-71
2023/02/22 02:08:54;;;;;;;;;;;;;;;-0.40;100.00;96499.63;5002515;28;20016;-72
2023/02/22 02:11:21;;;;;;;;;;;;;;;-0.60;100.00;96503.50;4997387;28;19917;-70
2023/02/22 02:13:48;;;;;;;;;;;;;;;-0.88;100.00;96503.50;5002486;28;19917;-72
2023/02/22 02:16:14;;;;;;;;;;;;;;;-1.07;100.00;96492.81;4996529;28;19921;-71
2023/02/22 02:18:39;;;;;;;;;;;;;;;-1.08;100.00;96496.63;5002201;28;20075;-71
2023/02/22 02:21:10;;;;;;;;;;;;;;;-1.07;100.00;96500.09;4997846;28;19924;-72
2023/02/22 02:23:36;;;;;;;;;;;;;;;-0.89;100.00;96501.91;5004538;28;19923;-72
2023/02/22 02:26:13;;;;;;;;;;;;;;;-0.83;100.00;96489.97;5001242;28;19921;-72
2023/02/22 02:28:57;;;;;;;;;;;;;;;-0.52;100.00;96491.25;5002968;28;19918;-73
2023/02/22 02:31:41;;;;;;;;;;;;;;;-0.58;100.00;96490.56;4995159;28;19925;-70
2023/02/22 02:34:06;;;;;;;;;;;;;;;-0.85;100.00;96489.44;4996974;28;19956;-72
2023/02/22 02:36:36;;;;;;;;;;;;;;;-0.94;100.00;96491.22;5002498;28;20006;-71
2023/02/22 02:39:07;;;;;;;;;;;;;;;-0.96;100.00;96490.75;5001737;28;19924;-68
2023/02/22 02:41:35;;;;;;;;;;;;;;;-1.07;100.00;96489.34;4999234;28;20455;-70
2023/02/22 02:44:04;;;;;;;;;;;;;;;-1.24;100.00;96485.34;5002316;28;19917;-69
2023/02/22 02:46:34;;;;;;;;;;;;;;;-1.23;100.00;96484.22;5001219;28;19928;-71
2023/02/22 02:49:02;;;;;;;;;;;;;;;-1.22;100.00;96483.13;5001801;28;19918;-72
2023/02/22 02:51:29;;;;;;;;;;;;;;;-1.35;100.00;96479.34;4999264;28;20007;-71
2023/02/22 02:53:56;;;;;;;;;;;;;;;-1.50;100.00;96474.19;5003958;28;20374;-69
2023/02/22 02:56:22;;;;;;;;;;;;;;;-1.38;100.00;96474.53;5001245;28;19928;-70
2023/02/22 02:58:51;;;;;;;;;;;;;;;-1.28;100.00;96473.56;5004416;28;19918;-69
2023/02/22 03:01:27;;;;;;;;;;;;;;;-1.36;100.00;96471.56;5000468;28;19918;-72
2023/02/22 03:04:14;;;;;;;;;;;;;;;-1.52;100.00;96464.84;5003990;28;20361;-71
2023/02/22 03:06:45;;;;;;;;;;;;;;;-1.40;100.00;96467.88;4988337;28;20024;-71
2023/02/22 03:09:15;;;;;;;;;;;;;;;-1.45;100.00;96466.06;5002845;28;19972;-71
2023/02/22 03:11:58;;;;;;;;;;;;;;;-1.52;100.00;96457.59;5006786;28;20389;-71
2023/02/22 03:14:30;;;;;;;;;;;;;;;-1.64;100.00;96455.38;5002089;28;19928;-71
2023/02/22 03:17:08;;;;;;;;;;;;;;;-1.64;100.00;96462.63;5005511;28;20267;-70
2023/02/22 03:19:36;;;;;;;;;;;;;;;-1.54;100.00;96457.88;5005394;28;19928;-71
2023/02/22 03:22:07;;;;;;;;;;;;;;;-1.62;100.00;96466.63;5005574;28;19921;-71
2023/02/22 03:24:38;;;;;;;;;;;;;;;-1.47;100.00;96462.88;5005859;28;19957;-72
2023/02/22 03:27:25;;;;;;;;;;;;;;;-1.45;100.00;96460.69;5000541;28;19922;-68
2023/02/22 03:29:51;;;;;;;;;;;;;;;-1.57;100.00;96461.16;5004799;28;20025;-73
2023/02/22 03:32:21;;;;;;;;;;;;;;;-1.61;100.00;96462.03;4999834;28;19921;-72
2023/02/22 03:34:55;;;;;;;;;;;;;;;-1.82;100.00;96464.25;5004832;28;19921;-70
2023/02/22 03:37:24;;;;;;;;;;;;;;;-1.73;100.00;96459.81;5001066;28;19917;-70
2023/02/22 03:39:51;;;;;;;;;;;;;;;-1.49;100.00;96462.38;5010230;28;19924;-72
2023/02/22 03:42:20;;;;;;;;;;;;;;;-1.30;100.00;96456.16;5005444;28;20424;-70
2023/02/22 03:44:46;;;;;;;;;;;;;;;-1.07;100.00;96460.56;5005936;28;19929;-68
2023/02/22 03:47:15;;;;;;;;;;;;;;;-0.93;100.00;96454.41;5000325;28;19928;-68
2023/02/22 03:49:59;;;;;;;;;;;;;;;-0.91;100.00;96458.38;5005434;28;19921;-71
2023/02/22 03:52:24;;;;;;;;;;;;;;;-0.89;100.00;96458.09;4999838;28;19913;-72
2023/02/22 03:54:54;;;;;;;;;;;;;;;-0.97;100.00;96456.91;5007086;28;19972;-73
2023/02/22 03:57:28;;;;;;;;;;;;;;;-1.01;100.00;96456.69;5002990;28;19921;-71
2023/02/22 03:59:53;;;;;;;;;;;;;;;-1.11;100.00;96458.78;5005735;28;19925;-70
2023/02/22 04:02:18;;;;;;;;;;;;;;;-1.43;100.00;96452.34;4999800;28;19921;-71
2023/02/22 04:04:47;;;;;;;;;;;;;;;-1.47;100.00;96452.13;5011120;28;19913;-70
2023/02/22 04:07:12;;;;;;;;;;;;;;;-1.32;100.00;96451.06;5022548;28;19918;-70
2023/02/22 04:09:38;;;;;;;;;;;;;;;-1.27;100.00;96455.56;5026465;28;19993;-69
2023/02/22 04:12:03;;;;;;;;;;;;;;;-1.31;100.00;96455.34;5004358;28;20731;-68
2023/02/22 04:14:29;;;;;;;;;;;;;;;-1.52;100.00;96452.22;5001583;28;19968;-68
2023/02/22 04:16:55;;;;;;;;;;;;;;;-1.74;100.00;96452.84;5003720;28;19960;-69
2023/02/22 04:19:20;;;;;;;;;;;;;;;-1.67;100.00;96449.81;5000081;28;19964;-71
2023/02/22 04:21:46;;;;;;;;;;;;;;;-1.66;100.00;96454.06;5004130;28;19964;-69
2023/02/22 04:24:11;;;;;;;;;;;;;;;-1.69;100.00;96450.09;4999552;28;20363;-70
2023/02/22 04:26:37;;;;;;;;;;;;;;;-1.94;100.00;96453.97;5004116;28;19960;-71
2023/02/22 04:29:03;;;;;;;;;;;;;;;-2.14;100.00;96452.41;5002650;28;19921;-68
2023/02/22 04:31:28;;;;;;;;;;;;;;;-2.19;100.00;96447.09;4984138;28;19917;-72
2023/02/22 04:33:54;;;;;;;;;;;;;;;-2.00;100.00;96447.06;5004043;28;19917;-71
2023/02/22 04:36:20;;;;;;;;;;;;;;;-1.79;100.00;96445.66;4998726;28;19923;-70
2023/02/22 04:38:45;;;;;;;;;;;;;;;-1.78;100.00;96446.47;5004336;28;20020;-70
2023/02/22 04:41:11;;;;;;;;;;;;;;;-1.86;100.00;96447.94;4999537;28;19956;-69
2023/02/22 04:43:36;;;;;;;;;;;;;;;-1.70;100.00;96445.78;5004708;28;19918;-70
2023/02/22 04:46:03;;;;;;;;;;;;;;;-1.52;100.00;96446.84;5004946;28;19961;-70
2023/02/22 04:48:28;;;;;;;;;;;;;;;-1.36;100.00;96445.50;5000308;28;19949;-69
2023/02/22 04:50:54;;;;;;;;;;;;;;;-1.31;100.00;96449.19;5004403;28;19960;-71
2023/02/22 04:53:19;;;;;;;;;;;;;;;-1.32;100.00;96447.59;4998836;28;20008;-73
2023/02/22 04:55:44;;;;;;;;;;;;;;;-1.29;100.00;96449.69;5003894;28;19918;-71
2023/02/22 04:58:10;;;;;;;;;;;;;;;-1.16;100.00;96452.38;4999594;28;20476;-74
2023/02/22 05:00:35;;;;;;;;;;;;;;;-1.10;100.00;96450.41;5004350;28;19917;-72
2023/02/22 05:03:00;;;;;;;;;;;;;;;-1.09;100.00;96451.22;5002445;28;19960;-71
2023/02/22 05:05:26;;;;;;;;;;;;;;;-1.14;100.00;96445.94;4998868;28;19936;-75
2023/02/22 05:07:52;;;;;;;;;;;;;;;-1.07;100.00;96449.81;5003741;28;19925;-71
2023/02/22 05:10:17;;;;;;;;;;;;;;;-1.05;100.00;96457.56;4997053;28;19922;-69
2023/02/22 05:12:43;;;;;;;;;;;;;;;-1.01;100.00;96451.31;5003458;28;19937;-69
2023/02/22 05:15:08;;;;;;;;;;;;;;;-0.98;100.00;96455.28;4999318;28;19925;-71
2023/02/22 05:17:34;;;;;;;;;;;;;;;-0.99;100.00;96451.00;5004039;28;19917;-69
2023/02/22 05:20:00;;;;;;;;;;;;;;;-0.97;100.00;96446.16;5004453;28;19918;-68
2023/02/22 05:22:25;;;;;;;;;;;;;;;-0.99;100.00;96440.25;5000927;28;19925;-71
2023/02/22 05:24:51;;;;;;;;;;;;;;;-1.07;100.00;96451.72;5003694;28;19922;-70
2023/02/22 05:27:16;;;;;;;;;;;;;;;-1.31;100.00;96449.97;4998622;28;19924;-69
2023/02/22 05:29:42;;;;;;;;;;;;;;;-1.27;100.00;96444.81;5004181;28;19917;-71
2023/02/22 05:32:07;;;;;;;;;;;;;;;-1.15;100.00;96437.06;4997349;28;20382;-72
2023/02/22 05:34:32;;;;;;;;;;;;;;;-1.08;100.00;96444.72;5002249;28;19925;-70
2023/02/22 05:36:57;;;;;;;;;;;;;;;-1.07;100.00;96444.44;5003780;28;19928;-72
2023/02/22 05:39:23;;;;;;;;;;;;;;;-1.13;100.00;96445.63;4998521;28;19921;-73
2023/02/22 05:41:48;;;;;;;;;;;;;;;-1.23;100.00;96446.59;5004898;28;20020;-70
2023/02/22 05:44:14;;;;;;;;;;;;;;;-1.25;100.00;96440.72;4997079;28;19928;-68
2023/02/22 05:46:39;;;;;;;;;;;;;;;-1.27;100.00;96447.50;5002841;28;19921;-71
2023/02/22 05:49:05;;;;;;;;;;;;;;;-1.45;100.00;96438.41;4998224;28;20281;-68
2023/02/22 05:51:30;;;;;;;;;;;;;;;-1.66;100.00;96444.13;5003428;28;19918;-70
2023/02/22 05:53:55;;;;;;;;;;;;;;;-1.64;100.00;96447.31;5002747;28;19925;-71
2023/02/22 05:56:22;;;;;;;;;;;;;;;-1.83;100.00;96438.50;4998640;28;20058;-71
2023/02/22 05:58:47;;;;;;;;;;;;;;;-1.73;100.00;96452.56;5003021;28;19917;-70
2023/02/22 06:01:12;;;;;;;;;;;;;;;-1.63;100.00;96440.06;4999423;28;19925;-71
2023/02/22 06:03:38;;;;;;;;;;;;;;;-1.79;100.00;96445.66;5010917;28;20331;-70
2023/02/22 06:06:04;;;;;;;;;;;;;;;-1.94;100.00;96444.03;5015314;28;19933;-68
2023/02/22 06:08:29;;;;;;;;;;;;;;;-1.88;100.00;96449.31;5007828;28;19917;-71
2023/02/22 06:10:54;;;;;;;;;;;;;;;-1.82;100.00;96453.50;5002361;28;20016;-70
2023/02/22 06:13:20;;;;;;;;;;;;;;;-1.84;100.00;96448.44;4999158;28;19932;-68
2023/02/22 06:15:45;;;;;;;;;;;;;;;-1.73;100.00;96449.06;5000852;28;19956;-70
2023/02/22 06:18:10;;;;;;;;;;;;;;;-1.44;100.00;96450.72;4997393;28;19921;-70
2023/02/22 06:20:35;;;;;;;;;;;;;;;-1.27;100.00;96456.34;5002799;28;19917;-70
2023/02/22 06:23:01;;;;;;;;;;;;;;;-1.20;100.00;96454.06;5002657;28;19949;-70
2023/02/22 06:25:27;;;;;;;;;;;;;;;-1.57;100.00;96446.94;4998486;28;19999;-71
2023/02/22 06:27:52;;;;;;;;;;;;;;;-1.59;100.00;96452.59;5002084;28;19968;-70
2023/02/22 06:30:19;;;;;;;;;;;;;;;-1.71;100.00;96460.34;4996457;28;20312;-69
2023/02/22 06:32:44;;;;;;;;;;;;;;;-1.60;100.00;96453.69;5000199;28;19972;-70
2023/02/22 06:35:10;;;;;;;;;;;;;;;-1.28;100.00;96462.81;4996555;28;20338;-69
2023/02/22 06:37:35;;;;;;;;;;;;;;;-1.10;100.00;96471.91;5002625;28;19918;-68
2023/02/22 06:40:00;;;;;;;;;;;;;;;-0.92;100.00;96467.53;5002264;28;20445;-69
2023/02/22 06:42:25;;;;;;;;;;;;;;;-0.96;100.00;96466.53;4996768;28;19921;-69
2023/02/22 06:44:51;;;;;;;;;;;;;;;-1.05;100.00;96476.41;5002975;28;20394;-69
2023/02/22 06:47:16;;;;;;;;;;;;;;;-0.90;100.00;96472.63;4998497;28;19944;-70
2023/02/22 06:49:41;;;;;;;;;;;;;;;-0.88;100.00;96475.81;5002191;28;19932;-70
2023/02/22 06:52:07;;;;;;;;;;;;;;;-0.94;100.00;96472.41;4997108;28;19926;-69
2023/02/22 06:54:33;;;;;;;;;;;;;;;-0.73;100.00;96474.72;5003770;28;19976;-71
2023/02/22 06:56:58;;;;;;;;;;;;;;;-0.63;100.00;96472.63;5002387;28;19917;-68
2023/02/22 06:59:23;;;;;;;;;;;;;;;-0.39;100.00;96482.38;4996165;28;19917;-70
2023/02/22 07:01:49;;;;;;;;;;;;;;;-0.31;100.00;96483.56;5002914;28;20004;-71
2023/02/22 07:04:14;;;;;;;;;;;;;;;-0.15;100.00;96475.97;4993868;28;19999;-71
2023/02/22 07:06:44;;;;;;;;;;;;;;;-0.09;100.00;96491.72;5002137;28;19925;-68
2023/02/22 07:09:09;;;;;;;;;;;;;;;0.10;100.00;96483.47;4997303;28;19922;-70
2023/02/22 07:11:37;;;;;;;;;;;;;;;0.12;100.00;96480.47;5003339;28;19917;-68
2023/02/22 07:14:02;;;;;;;;;;;;;;;0.42;100.00;96478.97;5003221;28;19940;-68
2023/02/22 07:16:27;;;;;;;;;;;;;;;0.60;100.00;96484.47;5002637;28;19929;-68
2023/02/22 07:18:53;;;;;;;;;;;;;;;0.75;100.00;96482.19;5003221;28;19968;-70
2023/02/22 07:21:18;;;;;;;;;;;;;;;0.91;100.00;96487.19;4997926;28;20484;-70
2023/02/22 07:23:49;;;;;;;;;;;;;;;0.86;100.00;96488.09;5005145;28;19922;-70
2023/02/22 07:26:14;;;;;;;;;;;;;;;0.87;100.00;96484.31;4999194;28;19957;-70
2023/02/22 07:28:40;;;;;;;;;;;;;;;0.94;100.00;96492.75;5003119;28;19969;-69
2023/02/22 07:31:05;;;;;;;;;;;;;;;0.95;100.00;96485.47;4999631;28;19921;-70
2023/02/22 07:33:30;;;;;;;;;;;;;;;1.15;100.00;96484.13;5007214;28;19917;-70
2023/02/22 07:35:55;;;;;;;;;;;;;;;1.39;100.00;96488.34;5006155;28;19917;-69
2023/02/22 07:38:21;;;;;;;;;;;;;;;1.57;100.00;96486.50;5000151;28;20159;-69
2023/02/22 07:40:46;;;;;;;;;;;;;;;1.80;100.00;96482.63;5001419;28;19976;-70
2023/02/22 07:43:24;;;;;;;;;;;;;;;2.04;100.00;96481.38;4996628;28;20389;-70
2023/02/22 07:45:50;;;;;;;;;;;;;;;2.00;100.00;96483.09;5001213;28;19968;-70
2023/02/22 07:48:17;;;;;;;;;;;;;;;1.96;100.00;96487.53;4998816;28;19924;-70
2023/02/22 07:50:42;;;;;;;;;;;;;;;2.05;100.00;96478.34;5006966;28;19922;-71
2023/02/22 07:53:12;;;;;;;;;;;;;;;2.16;100.00;96486.13;5001068;28;19925;-69
2023/02/22 07:55:37;;;;;;;;;;;;;;;2.42;100.00;96486.16;5001271;28;19921;-70
2023/02/22 07:58:04;;;;;;;;;;;;;;;2.67;100.00;96479.13;5002100;28;19921;-71
2023/02/22 08:00:38;;;;;;;;;;;;;;;2.95;100.00;96476.81;5002833;28;19922;-70
2023/02/22 08:03:04;;;;;;;;;;;;;;;2.75;100.00;96472.91;4982102;28;19937;-71
2023/02/22 08:05:33;;;;;;;;;;;;;;;2.94;100.00;96471.75;5001304;28;19933;-69
2023/02/22 08:07:59;;;;;;;;;;;;;;;2.92;100.00;96477.50;5001461;28;20009;-69
2023/02/22 08:10:24;;;;;;;;;;;;;;;3.25;100.00;96474.19;4998439;28;20485;-70
2023/02/22 08:12:50;;;;;;;;;;;;;;;3.17;100.00;96462.28;5004618;28;19921;-69
2023/02/22 08:15:21;;;;;;;;;;;;;;;2.93;100.00;96468.25;5003727;28;19928;-70
2023/02/22 08:17:46;;;;;;;;;;;;;;;3.28;100.00;96472.75;5003652;28;19925;-70
2023/02/22 08:20:11;;;;;;;;;;;;;;;3.61;100.00;96465.59;5001506;28;19976;-70
2023/02/22 08:22:37;;;;;;;;;;;;;;;3.61;100.00;96462.88;5005555;28;20461;-69
2023/02/22 08:25:02;;;;;;;;;;;;;;;3.41;100.00;96460.91;5005471;28;19930;-71
2023/02/22 08:27:29;;;;;;;;;;;;;;;3.87;100.00;96461.13;4999295;28;19921;-70
2023/02/22 08:29:55;;;;;;;;;;;;;;;4.16;100.00;96457.56;5006417;28;19921;-70
2023/02/22 08:32:20;;;;;;;;;;;;;;;4.49;100.00;96457.63;5002896;28;19971;-70
2023/02/22 08:34:48;;;;;;;;;;;;;;;4.64;100.00;96461.63;5005983;28;19930;-69
2023/02/22 08:37:14;;;;;;;;;;;;;;;4.67;100.00;96463.69;5003322;28;19924;-69
2023/02/22 08:39:40;;;;;;;;;;;;;;;5.01;100.00;96459.03;5006646;28;19922;-69
2023/02/22 08:42:07;;;;;;;;;;;;;;;5.25;97.70;96462.94;5001435;28;20008;-68
2023/02/22 08:44:33;;;;;;;;;;;;;;;5.26;97.49;96462.59;5004729;28;19926;-70
2023/02/22 08:46:58;;;;;;;;;;;;;;;5.57;95.87;96457.75;5005396;28;20275;-70
2023/02/22 08:49:23;;;;;;;;;;;;;;;5.86;94.49;96467.56;5002533;28;20342;-73
2023/02/22 08:51:49;;;;;;;;;;;;;;;6.16;93.57;96470.03;5006168;28;19929;-69
2023/02/22 08:54:14;;;;;;;;;;;;;;;6.16;91.92;96462.69;5001656;28;19948;-69
2023/02/22 08:56:39;;;;;;;;;;;;;;;6.37;90.89;96470.66;5007867;28;19944;-69
2023/02/22 08:59:04;;;;;;;;;;;;;;;6.69;90.78;96457.19;5003715;28;19918;-68
2023/02/22 09:01:31;;;;;;;;;;;;;;;6.94;89.51;96462.53;5004809;28;19929;-70
2023/02/22 09:03:56;;;;;;;;;;;;;;;7.12;87.95;96458.31;5004696;28;19933;-69
2023/02/22 09:06:22;;;;;;;;;;;;;;;7.35;85.77;96453.06;4999716;28;20343;-69
2023/02/22 09:08:47;;;;;;;;;;;;;;;7.91;84.74;96465.69;5008093;28;20093;-71
2023/02/22 09:11:13;;;;;;;;;;;;;;;8.53;81.38;96460.41;5002300;28;20373;-67
2023/02/22 09:13:38;;;;;;;;;;;;;;;8.42;77.86;96462.13;5008373;28;19921;-70
2023/02/22 09:16:04;;;;;;;;;;;;;;;8.53;79.46;96457.69;5001116;28;19925;-69
2023/02/22 09:18:29;;;;;;;;;;;;;;;8.58;76.10;96454.66;5003276;28;19926;-71
2023/02/22 09:20:55;;;;;;;;;;;;;;;8.67;78.83;96449.00;5005206;28;19921;-68
2023/02/22 09:23:20;;;;;;;;;;;;;;;9.10;77.19;96446.28;4997947;28;19928;-70
2023/02/22 09:25:49;;;;;;;;;;;;;;;9.19;76.31;96449.56;5002753;28;19925;-70
2023/02/22 09:28:14;;;;;;;;;;;;;;;8.59;77.26;96442.59;5000679;28;19976;-70
2023/02/22 09:30:39;;;;;;;;;;;;;;;9.02;77.49;96445.38;5002228;28;20313;-70
2023/02/22 09:33:08;;;;;;;;;;;;;;;9.15;76.38;96449.50;5000465;28;20384;-70
2023/02/22 09:35:34;;;;;;;;;;;;;;;8.66;80.20;96446.63;5003163;28;20016;-69
2023/02/22 09:38:01;;;;;;;;;;;;;;;7.81;83.99;96449.84;5004741;28;20505;-70
2023/02/22 09:40:28;;;;;;;;;;;;;;;8.38;83.39;96444.88;5001270;28;19925;-70
2023/02/22 09:43:07;;;;;;;;;;;;;;;8.64;81.91;96441.50;5020359;28;19932;-71
2023/02/22 09:45:37;;;;;;;;;;;;;;;8.83;81.89;96440.72;5019397;28;19952;-68
2023/02/22 09:48:05;;;;;;;;;;;;;;;9.36;79.27;96438.16;5005738;28;19948;-68
2023/02/22 09:50:34;;;;;;;;;;;;;;;9.32;78.84;96431.03;5003564;28;20345;-70
2023/02/22 09:53:04;;;;;;;;;;;;;;;9.71;75.59;96431.69;5004485;28;19921;-70
2023/02/22 09:55:36;;;;;;;;;;;;;;;9.43;76.45;96436.69;5001726;28;19976;-71
2023/02/22 09:58:04;;;;;;;;;;;;;;;9.94;74.69;96439.84;5003546;28;19936;-70
2023/02/22 10:00:36;;;;;;;;;;;;;;;10.16;72.53;96433.88;5001523;28;20362;-70
2023/02/22 10:03:20;;;;;;;;;;;;;;;10.03;71.51;96444.25;5001915;28;20390;-70
2023/02/22 10:06:00;;;;;;;;;;;;;;;9.97;70.71;96437.53;5003785;28;19953;-70
2023/02/22 10:08:28;;;;;;;;;;;;;;;10.63;68.92;96438.03;5002275;28;19926;-70
2023/02/22 10:11:02;;;;;;;;;;;;;;;10.95;67.46;96440.31;5007742;28;20020;-70
2023/02/22 10:13:44;;;;;;;;;;;;;;;11.82;63.67;96431.72;5003996;28;20363;-69
2023/02/22 10:16:09;;;;;;;;;;;;;;;12.60;60.72;96428.66;5002516;28;19922;-71
2023/02/22 10:18:59;;;;;;;;;;;;;;;12.15;59.19;96429.97;5007989;28;20289;-70
2023/02/22 10:21:41;;;;;;;;;;;;;;;12.35;59.75;96422.25;5000231;28;20748;-69
2023/02/22 10:24:12;;;;;;;;;;;;;;;12.94;61.26;96425.59;5000193;28;19925;-69
2023/02/22 10:26:42;;;;;;;;;;;;;;;14.65;53.79;96425.94;5001934;28;19926;-69
2023/02/22 10:29:10;;;;;;;;;;;;;;;13.63;54.51;96420.22;4998616;28;19929;-69
2023/02/22 10:31:40;;;;;;;;;;;;;;;14.24;52.84;96422.91;5005430;28;19944;-69
2023/02/22 10:34:16;;;;;;;;;;;;;;;14.49;52.26;96417.31;4998555;28;20428;-70
2023/02/22 10:36:46;;;;;;;;;;;;;;;13.68;54.54;96415.09;5001885;28;19922;-70
2023/02/22 10:39:38;;;;;;;;;;;;;;;14.60;51.42;96409.03;5000618;28;19921;-69
2023/02/22 10:42:05;;;;;;;;;;;;;;;14.95;52.01;96402.56;5000593;28;19922;-70
2023/02/22 10:44:31;;;;;;;;;;;;;;;15.07;49.44;96407.63;5002306;28;19928;-70
2023/02/22 10:46:58;;;;;;;;;;;;;;;15.61;49.05;96403.69;5002476;28;19921;-70
2023/02/22 10:49:23;;;;;;;;;;;;;;;16.16;47.12;96399.28;4999927;28;20411;-68
2023/02/22 10:51:58;;;;;;;;;;;;;;;16.24;47.09;96392.47;5002597;28;20396;-70
2023/02/22 10:54:27;;;;;;;;;;;;;;;15.92;47.03;96396.34;4999002;28;20338;-70
2023/02/22 10:56:54;;;;;;;;;;;;;;;16.11;46.80;96389.44;4986655;28;19923;-69
2023/02/22 10:59:26;;;;;;;;;;;;;;;15.07;48.96;96387.50;4996402;28;20402;-69
2023/02/22 11:01:52;;;;;;;;;;;;;;;14.97;50.15;96385.63;5002769;28;20390;-68
2023/02/22 11:04:18;;;;;;;;;;;;;;;16.36;47.64;96391.16;4998962;28;19929;-70
2023/02/22 11:06:45;;;;;;;;;;;;;;;18.01;43.63;96385.28;5004683;28;19952;-69
2023/02/22 11:09:11;;;;;;;;;;;;;;;17.36;42.88;96376.00;4999393;28;19921;-70
2023/02/22 11:11:36;;;;;;;;;;;;;;;16.24;46.32;96376.69;4986571;28;20518;-69
2023/02/22 11:14:05;;;;;;;;;;;;;;;16.17;46.33;96370.44;5002830;28;19925;-71
2023/02/22 11:16:48;;;;;;;;;;;;;;;17.24;44.64;96370.28;5005122;28;20402;-70
2023/02/22 11:19:21;;;;;;;;;;;;;;;16.37;44.47;96365.09;5002505;28;19928;-70
2023/02/22 11:21:50;;;;;;;;;;;;;;;15.97;46.81;96360.00;5008201;28;19968;-70
2023/02/22 11:24:16;;;;;;;;;;;;;;;16.07;46.18;96354.78;5002024;28;19926;-70
2023/02/22 11:27:04;;;;;;;;;;;;;;;16.32;45.51;96351.72;5005679;28;19925;-70
2023/02/22 11:29:35;;;;;;;;;;;;;;;16.07;46.21;96355.56;5007569;28;20087;-70
2023/02/22 11:32:03;;;;;;;;;;;;;;;15.51;48.30;96346.63;5005402;28;19925;-69
2023/02/22 11:34:34;;;;;;;;;;;;;;;15.20;49.82;96338.97;5006326;28;19921;-71
2023/02/22 11:37:14;;;;;;;;;;;;;;;15.04;50.19;96338.69;5007101;28;19928;-69
2023/02/22 11:39:42;;;;;;;;;;;;;;;14.57;50.63;96332.63;5003800;28;20398;-70
2023/02/22 11:42:16;;;;;;;;;;;;;;;14.60;50.42;96329.09;5002227;28;19940;-70
2023/02/22 11:44:43;;;;;;;;;;;;;;;14.59;50.20;96331.09;5006806;28;19929;-69
2023/02/22 11:47:11;;;;;;;;;;;;;;;14.70;50.02;96331.81;5002045;28;20378;-69
2023/02/22 11:49:38;;;;;;;;;;;;;;;14.50;50.40;96327.97;5007545;28;20400;-68
2023/02/22 11:52:27;;;;;;;;;;;;;;;14.93;49.06;96319.47;5002798;28;19930;-65
2023/02/22 11:54:56;;;;;;;;;;;;;;;14.40;49.83;96318.53;5006185;28;19925;-69
2023/02/22 11:57:31;;;;;;;;;;;;;;;14.52;50.80;96318.09;5002608;28;20190;-68
2023/02/22 12:00:15;;;;;;;;;;;;;;;14.58;50.84;96312.19;5004654;28;19944;-68
2023/02/22 12:03:01;;;;;;;;;;;;;;;14.71;50.43;96305.81;5006439;28;19956;-67
2023/02/22 12:05:45;;;;;;;;;;;;;;;15.50;48.73;96301.66;4993973;28;20426;-70
2023/02/22 12:08:19;;;;;;;;;;;;;;;15.48;48.17;96309.56;5002715;28;19953;-71
2023/02/22 12:11:11;;;;;;;;;;;;;;;14.66;49.45;96297.97;5009196;28;19921;-70
2023/02/22 12:13:39;;;;;;;;;;;;;;;14.01;51.95;96302.19;5007800;28;19967;-70
2023/02/22 12:16:24;;;;;;;;;;;;;;;13.97;52.74;96293.94;5002167;28;20353;-68
2023/02/22 12:18:58;;;;;;;;;;;;;;;14.27;51.41;96295.41;5019521;28;20028;-69
2023/02/22 12:21:25;;;;;;;;;;;;;;;14.23;50.94;96295.41;5015941;28;20345;-70
2023/02/22 12:23:50;;;;;;;;;;;;;;;13.30;53.28;96293.66;5022503;28;19933;-67
2023/02/22 12:26:15;;;;;;;;;;;;;;;13.10;53.95;96290.53;5006502;28;19925;-70
2023/02/22 12:29:04;;;;;;;;;;;;;;;13.03;53.90;96284.25;5005585;28;20339;-69
2023/02/22 12:31:35;;;;;;;;;;;;;;;12.96;54.44;96291.34;5003557;28;19940;-68
2023/02/22 12:34:03;;;;;;;;;;;;;;;13.11;53.82;96291.34;5007087;28;20358;-69
2023/02/22 12:36:42;;;;;;;;;;;;;;;13.09;53.65;96288.97;5005486;28;20409;-69
2023/02/22 12:39:29;;;;;;;;;;;;;;;12.91;52.48;96282.66;5000611;28;19931;-69
2023/02/22 12:41:55;;;;;;;;;;;;;;;12.94;52.61;96290.91;5006297;28;19930;-69
2023/02/22 12:44:26;;;;;;;;;;;;;;;12.66;53.91;96293.63;5004608;28;19926;-70
2023/02/22 12:46:53;;;;;;;;;;;;;;;13.15;53.86;96283.84;5007303;28;19933;-70
2023/02/22 12:49:29;;;;;;;;;;;;;;;13.64;53.20;96287.75;5004561;28;20409;-69